QTR39C EDDF-OTHH
Flight info
| Callsign | QTR39C |
|---|---|
| Flight time | N/A |
| Altitude | 37000 |
| Route | CINDY6F CINDY Z74 LAMPU DCT NOMBO Y161 MAH DCT VAVOR DCT RADIZ/N0480F390 DCT NEMEK DCT VRANA DCT DIMIS DCT IPTES UL604 SALUN N705 MMA/N0485F410 P751 DASUM Y234 FYM M872 WEJ L604 GAS G662 KSA N687 KINIB Z511 GISRA L681 ORLEK |
| Aircraft | A359/H-SDE2E3GHIJ3J4J5LM1ORWXY/LB1D1 |
Departure
| Time | 2026-05-06 10:39 |
|---|---|
| Airport | Frankfurt Main Airport (EDDF) |
Arrival
| Time | N/A |
|---|---|
| Airport | Hamad International Airport (OTHH) |
| Time | Latitude | Longitude | Altitude | Speed | Heading |
|---|---|---|---|---|---|
| 2026-05-06 10:08 | 50.04910 | 8.58062 | 366 ft | 0 kts | 339° |
| 2026-05-06 10:30 | 50.04891 | 8.58074 | 368 ft | 4 kts | 339° |
| 2026-05-06 10:30 | 50.04866 | 8.58089 | 365 ft | 4 kts | 339° |
| 2026-05-06 10:30 | 50.04846 | 8.58100 | 366 ft | 4 kts | 349° |
| 2026-05-06 10:30 | 50.04821 | 8.58100 | 364 ft | 4 kts | 30° |
| 2026-05-06 10:31 | 50.04809 | 8.58079 | 370 ft | 0 kts | 70° |
| 2026-05-06 10:31 | 50.04819 | 8.58120 | 373 ft | 4 kts | 70° |
| 2026-05-06 10:31 | 50.04821 | 8.58132 | 367 ft | 0 kts | 70° |
| 2026-05-06 10:34 | 50.04822 | 8.58136 | 368 ft | 2 kts | 70° |
| 2026-05-06 10:34 | 50.04833 | 8.58181 | 372 ft | 9 kts | 68° |
| 2026-05-06 10:34 | 50.04867 | 8.58320 | 371 ft | 17 kts | 70° |
| 2026-05-06 10:35 | 50.04907 | 8.58490 | 370 ft | 13 kts | 70° |
| 2026-05-06 10:35 | 50.04934 | 8.58600 | 373 ft | 8 kts | 69° |
| 2026-05-06 10:35 | 50.04923 | 8.58645 | 374 ft | 5 kts | 129° |
| 2026-05-06 10:35 | 50.04890 | 8.58679 | 375 ft | 5 kts | 155° |
| 2026-05-06 10:36 | 50.04860 | 8.58699 | 374 ft | 5 kts | 158° |
| 2026-05-06 10:36 | 50.04817 | 8.58725 | 375 ft | 8 kts | 158° |
| 2026-05-06 10:36 | 50.04755 | 8.58760 | 377 ft | 10 kts | 168° |
| 2026-05-06 10:36 | 50.04689 | 8.58762 | 376 ft | 8 kts | 185° |
| 2026-05-06 10:37 | 50.04622 | 8.58750 | 377 ft | 11 kts | 193° |
| 2026-05-06 10:37 | 50.04566 | 8.58694 | 377 ft | 10 kts | 219° |
| 2026-05-06 10:37 | 50.04510 | 8.58623 | 377 ft | 11 kts | 221° |
| 2026-05-06 10:37 | 50.04478 | 8.58550 | 376 ft | 0 kts | 248° |
| 2026-05-06 10:38 | 50.04453 | 8.58449 | 376 ft | 34 kts | 249° |
| 2026-05-06 10:38 | 50.04291 | 8.57772 | 374 ft | 98 kts | 250° |
| 2026-05-06 10:38 | 50.03991 | 8.56506 | 362 ft | 151 kts | 250° |
| 2026-05-06 10:39 | 50.03609 | 8.54837 | 769 ft | 163 kts | 247° |
| 2026-05-06 10:39 | 50.03228 | 8.53244 | 1651 ft | 155 kts | 245° |
| 2026-05-06 10:39 | 50.02780 | 8.51701 | 2250 ft | 159 kts | 239° |
| 2026-05-06 10:39 | 50.02037 | 8.50414 | 2813 ft | 162 kts | 217° |
| 2026-05-06 10:40 | 50.00992 | 8.49728 | 3357 ft | 168 kts | 194° |
| 2026-05-06 10:40 | 49.99823 | 8.49375 | 3814 ft | 175 kts | 192° |
| 2026-05-06 10:40 | 49.98568 | 8.49310 | 4131 ft | 193 kts | 170° |
| 2026-05-06 10:40 | 49.97425 | 8.50576 | 4371 ft | 219 kts | 125° |
| 2026-05-06 10:41 | 49.96725 | 8.52728 | 4895 ft | 226 kts | 116° |
| 2026-05-06 10:41 | 49.96096 | 8.54997 | 5426 ft | 233 kts | 116° |
| 2026-05-06 10:41 | 49.95444 | 8.57369 | 5950 ft | 244 kts | 115° |
| 2026-05-06 10:41 | 49.94790 | 8.59839 | 6527 ft | 251 kts | 114° |
| 2026-05-06 10:42 | 49.94252 | 8.62499 | 7027 ft | 267 kts | 102° |
| 2026-05-06 10:42 | 49.94082 | 8.65422 | 7629 ft | 277 kts | 95° |
| 2026-05-06 10:42 | 49.93861 | 8.68424 | 8265 ft | 283 kts | 107° |
| 2026-05-06 10:42 | 49.93121 | 8.71256 | 8975 ft | 284 kts | 124° |
| 2026-05-06 10:43 | 49.91827 | 8.73481 | 9808 ft | 276 kts | 148° |
| 2026-05-06 10:43 | 49.90152 | 8.74929 | 10467 ft | 280 kts | 158° |
| 2026-05-06 10:43 | 49.88447 | 8.76528 | 10987 ft | 296 kts | 142° |
| 2026-05-06 10:44 | 49.86102 | 8.82196 | 11888 ft | 330 kts | 122° |
| 2026-05-06 10:44 | 49.84932 | 8.85365 | 12239 ft | 347 kts | 123° |
| 2026-05-06 10:44 | 49.83703 | 8.88675 | 12592 ft | 363 kts | 123° |
| 2026-05-06 10:44 | 49.82863 | 8.90949 | 12856 ft | 371 kts | 122° |
| 2026-05-06 10:45 | 49.81572 | 8.94466 | 13451 ft | 379 kts | 122° |
| 2026-05-06 10:45 | 49.80267 | 8.98035 | 14062 ft | 383 kts | 122° |
| 2026-05-06 10:45 | 49.78949 | 9.01646 | 14708 ft | 386 kts | 122° |
| 2026-05-06 10:45 | 49.77622 | 9.05279 | 15349 ft | 390 kts | 122° |
| 2026-05-06 10:46 | 49.76369 | 9.09027 | 15980 ft | 396 kts | 115° |
| 2026-05-06 10:46 | 49.75308 | 9.14471 | 16805 ft | 403 kts | 107° |
| 2026-05-06 10:46 | 49.74737 | 9.17261 | 17224 ft | 403 kts | 114° |
| 2026-05-06 10:46 | 49.73388 | 9.21029 | 17861 ft | 401 kts | 127° |
| 2026-05-06 10:47 | 49.71701 | 9.24477 | 18446 ft | 404 kts | 132° |
| 2026-05-06 10:47 | 49.69861 | 9.27787 | 18989 ft | 407 kts | 134° |
| 2026-05-06 10:47 | 49.67950 | 9.31044 | 19555 ft | 411 kts | 135° |
| 2026-05-06 10:47 | 49.66008 | 9.34315 | 20128 ft | 415 kts | 135° |
| 2026-05-06 10:48 | 49.64054 | 9.37628 | 20692 ft | 419 kts | 135° |
| 2026-05-06 10:48 | 49.61952 | 9.40753 | 21238 ft | 420 kts | 143° |
| 2026-05-06 10:48 | 49.59589 | 9.43401 | 21811 ft | 421 kts | 149° |
| 2026-05-06 10:48 | 49.57122 | 9.45854 | 22372 ft | 424 kts | 151° |
| 2026-05-06 10:49 | 49.54595 | 9.48213 | 23019 ft | 425 kts | 152° |
| 2026-05-06 10:49 | 49.52037 | 9.50528 | 23544 ft | 429 kts | 153° |
| 2026-05-06 10:49 | 49.49449 | 9.52847 | 24073 ft | 430 kts | 153° |
| 2026-05-06 10:49 | 49.46862 | 9.55167 | 24645 ft | 431 kts | 153° |
| 2026-05-06 10:50 | 49.44267 | 9.57502 | 25211 ft | 432 kts | 153° |
| 2026-05-06 10:50 | 49.41671 | 9.59848 | 25761 ft | 434 kts | 153° |
| 2026-05-06 10:50 | 49.39066 | 9.62207 | 26289 ft | 435 kts | 153° |
| 2026-05-06 10:50 | 49.36456 | 9.64585 | 26811 ft | 438 kts | 153° |
| 2026-05-06 10:51 | 49.33953 | 9.67285 | 27320 ft | 443 kts | 145° |
| 2026-05-06 10:51 | 49.31648 | 9.70437 | 27983 ft | 444 kts | 142° |
| 2026-05-06 10:51 | 49.29409 | 9.73721 | 28478 ft | 447 kts | 141° |
| 2026-05-06 10:51 | 49.27187 | 9.77086 | 28922 ft | 451 kts | 140° |
| 2026-05-06 10:52 | 49.24997 | 9.80450 | 29310 ft | 453 kts | 140° |
| 2026-05-06 10:52 | 49.22766 | 9.83885 | 29713 ft | 457 kts | 141° |
| 2026-05-06 10:52 | 49.20509 | 9.87349 | 30072 ft | 460 kts | 141° |
| 2026-05-06 10:52 | 49.18240 | 9.90815 | 30353 ft | 463 kts | 141° |
| 2026-05-06 10:53 | 49.15953 | 9.94294 | 30618 ft | 466 kts | 141° |
| 2026-05-06 10:53 | 49.13639 | 9.97801 | 30876 ft | 469 kts | 141° |
| 2026-05-06 10:53 | 49.11315 | 10.01315 | 31130 ft | 472 kts | 142° |
| 2026-05-06 10:53 | 49.08972 | 10.04852 | 31406 ft | 474 kts | 142° |
| 2026-05-06 10:54 | 49.06626 | 10.08393 | 31786 ft | 474 kts | 142° |
| 2026-05-06 10:54 | 49.04278 | 10.11898 | 32134 ft | 473 kts | 143° |
| 2026-05-06 10:54 | 49.01876 | 10.15338 | 32457 ft | 473 kts | 144° |
| 2026-05-06 10:54 | 48.99448 | 10.18736 | 32660 ft | 476 kts | 144° |
| 2026-05-06 10:55 | 48.96999 | 10.22138 | 32905 ft | 477 kts | 144° |
| 2026-05-06 10:55 | 48.94545 | 10.25552 | 33268 ft | 477 kts | 144° |
| 2026-05-06 10:55 | 48.92101 | 10.28976 | 33611 ft | 478 kts | 144° |
| 2026-05-06 10:55 | 48.89660 | 10.32406 | 33913 ft | 478 kts | 144° |
| 2026-05-06 10:56 | 48.87217 | 10.35843 | 34182 ft | 478 kts | 144° |
| 2026-05-06 10:56 | 48.84776 | 10.39278 | 34460 ft | 478 kts | 144° |
| 2026-05-06 10:56 | 48.82338 | 10.42708 | 34742 ft | 477 kts | 143° |
| 2026-05-06 10:56 | 48.79975 | 10.46236 | 35124 ft | 477 kts | 140° |
| 2026-05-06 10:57 | 48.77694 | 10.49889 | 35377 ft | 478 kts | 139° |
| 2026-05-06 10:57 | 48.75436 | 10.53603 | 35549 ft | 479 kts | 139° |
| 2026-05-06 10:57 | 48.73179 | 10.57327 | 35799 ft | 479 kts | 139° |
| 2026-05-06 10:57 | 48.70925 | 10.61023 | 36064 ft | 478 kts | 139° |
| 2026-05-06 10:58 | 48.68655 | 10.64698 | 36294 ft | 477 kts | 139° |
| 2026-05-06 10:58 | 48.66375 | 10.68351 | 36527 ft | 477 kts | 139° |
| 2026-05-06 10:58 | 48.64090 | 10.71991 | 36744 ft | 477 kts | 139° |
| 2026-05-06 10:59 | 48.59490 | 10.79273 | 36843 ft | 480 kts | 139° |
| 2026-05-06 10:59 | 48.54898 | 10.86574 | 36823 ft | 478 kts | 139° |
| 2026-05-06 11:00 | 48.50344 | 10.93858 | 36799 ft | 478 kts | 139° |
| 2026-05-06 11:00 | 48.45765 | 11.01125 | 36803 ft | 478 kts | 140° |
| 2026-05-06 11:01 | 48.41148 | 11.08297 | 36804 ft | 477 kts | 140° |
| 2026-05-06 11:01 | 48.36518 | 11.15459 | 36805 ft | 477 kts | 140° |
| 2026-05-06 11:02 | 48.31893 | 11.22614 | 36779 ft | 477 kts | 140° |
| 2026-05-06 11:02 | 48.27325 | 11.29866 | 36809 ft | 482 kts | 135° |
| 2026-05-06 11:03 | 48.23562 | 11.38296 | 36805 ft | 489 kts | 127° |
| 2026-05-06 11:03 | 48.20133 | 11.47105 | 36890 ft | 490 kts | 125° |
| 2026-05-06 11:03 | 48.18440 | 11.51537 | 37113 ft | 489 kts | 125° |
| 2026-05-06 11:04 | 48.16753 | 11.55944 | 37398 ft | 487 kts | 125° |
| 2026-05-06 11:04 | 48.15064 | 11.60334 | 37611 ft | 486 kts | 125° |
| 2026-05-06 11:04 | 48.13371 | 11.64709 | 37823 ft | 485 kts | 125° |
| 2026-05-06 11:04 | 48.11673 | 11.69075 | 38051 ft | 484 kts | 125° |
| 2026-05-06 11:05 | 48.09977 | 11.73422 | 38278 ft | 483 kts | 125° |
| 2026-05-06 11:05 | 48.08303 | 11.77699 | 38463 ft | 483 kts | 125° |
| 2026-05-06 11:05 | 48.06584 | 11.82085 | 38590 ft | 483 kts | 125° |
| 2026-05-06 11:05 | 48.04907 | 11.86353 | 38704 ft | 483 kts | 125° |
| 2026-05-06 11:06 | 48.03204 | 11.90684 | 38777 ft | 484 kts | 125° |
| 2026-05-06 11:06 | 47.99766 | 11.99403 | 38773 ft | 489 kts | 125° |
| 2026-05-06 11:07 | 47.96292 | 12.08191 | 38788 ft | 493 kts | 125° |
| 2026-05-06 11:07 | 47.92335 | 12.16414 | 38786 ft | 483 kts | 139° |
| 2026-05-06 11:08 | 47.87406 | 12.23129 | 38782 ft | 480 kts | 144° |
| 2026-05-06 11:08 | 47.82298 | 12.29506 | 38779 ft | 479 kts | 145° |
| 2026-05-06 11:09 | 47.77161 | 12.35839 | 38776 ft | 479 kts | 145° |
| 2026-05-06 11:09 | 47.72051 | 12.42172 | 38772 ft | 477 kts | 145° |
| 2026-05-06 11:10 | 47.66970 | 12.48480 | 38771 ft | 476 kts | 145° |
| 2026-05-06 11:10 | 47.61892 | 12.54779 | 38769 ft | 476 kts | 145° |
| 2026-05-06 11:11 | 47.57007 | 12.61472 | 38762 ft | 479 kts | 141° |
| 2026-05-06 11:11 | 47.52250 | 12.68411 | 38768 ft | 480 kts | 141° |
| 2026-05-06 11:12 | 47.47460 | 12.75299 | 38768 ft | 480 kts | 142° |
| 2026-05-06 11:12 | 47.42633 | 12.82121 | 38767 ft | 480 kts | 142° |
| 2026-05-06 11:13 | 47.37786 | 12.88915 | 38774 ft | 480 kts | 142° |
| 2026-05-06 11:13 | 47.32976 | 12.95644 | 38795 ft | 480 kts | 142° |
| 2026-05-06 11:14 | 47.28111 | 13.02447 | 38821 ft | 479 kts | 142° |
| 2026-05-06 11:14 | 47.23301 | 13.09141 | 38808 ft | 479 kts | 142° |
| 2026-05-06 11:15 | 47.18424 | 13.15896 | 38845 ft | 484 kts | 142° |
| 2026-05-06 11:15 | 47.13527 | 13.22671 | 38848 ft | 483 kts | 142° |
| 2026-05-06 11:16 | 47.08632 | 13.29425 | 38873 ft | 484 kts | 142° |
| 2026-05-06 11:16 | 47.03717 | 13.36191 | 38875 ft | 486 kts | 142° |
| 2026-05-06 11:17 | 46.98780 | 13.42974 | 38900 ft | 488 kts | 141° |
| 2026-05-06 11:17 | 46.93790 | 13.49804 | 38901 ft | 493 kts | 141° |
| 2026-05-06 11:18 | 46.88789 | 13.56638 | 38915 ft | 491 kts | 141° |
| 2026-05-06 11:18 | 46.83796 | 13.63445 | 38912 ft | 492 kts | 142° |
| 2026-05-06 11:19 | 46.78785 | 13.70253 | 38912 ft | 492 kts | 141° |
| 2026-05-06 11:19 | 46.73764 | 13.77055 | 38922 ft | 493 kts | 141° |
| 2026-05-06 11:20 | 46.68717 | 13.83872 | 38928 ft | 495 kts | 141° |
| 2026-05-06 11:20 | 46.63702 | 13.90636 | 38912 ft | 495 kts | 142° |
| 2026-05-06 11:21 | 46.58660 | 13.97418 | 38926 ft | 493 kts | 142° |
| 2026-05-06 11:21 | 46.53614 | 14.04185 | 38932 ft | 493 kts | 142° |
| 2026-05-06 11:22 | 46.48566 | 14.10935 | 38917 ft | 493 kts | 142° |
| 2026-05-06 11:22 | 46.43533 | 14.17645 | 38937 ft | 494 kts | 141° |
| 2026-05-06 11:23 | 46.38469 | 14.24382 | 38958 ft | 492 kts | 142° |
| 2026-05-06 11:23 | 46.33429 | 14.31075 | 38964 ft | 491 kts | 142° |
| 2026-05-06 11:24 | 46.28392 | 14.37740 | 38966 ft | 491 kts | 142° |
| 2026-05-06 11:24 | 46.23345 | 14.44401 | 38970 ft | 491 kts | 142° |
| 2026-05-06 11:25 | 46.18305 | 14.51036 | 38955 ft | 490 kts | 142° |
| 2026-05-06 11:25 | 46.13252 | 14.57669 | 38966 ft | 492 kts | 142° |
| 2026-05-06 11:26 | 46.08183 | 14.64307 | 38966 ft | 492 kts | 142° |
| 2026-05-06 11:26 | 46.03110 | 14.70935 | 38963 ft | 492 kts | 142° |
| 2026-05-06 11:27 | 45.98045 | 14.77538 | 38958 ft | 490 kts | 143° |
| 2026-05-06 11:27 | 45.92981 | 14.84119 | 38956 ft | 491 kts | 142° |
| 2026-05-06 11:28 | 45.87903 | 14.90698 | 38954 ft | 492 kts | 142° |
| 2026-05-06 11:28 | 45.82816 | 14.97274 | 38955 ft | 492 kts | 142° |
| 2026-05-06 11:29 | 45.77728 | 15.03836 | 38955 ft | 492 kts | 142° |
| 2026-05-06 11:29 | 45.72669 | 15.10343 | 38942 ft | 492 kts | 142° |
| 2026-05-06 11:30 | 45.67578 | 15.16875 | 38953 ft | 492 kts | 142° |
| 2026-05-06 11:30 | 45.62484 | 15.23394 | 38953 ft | 491 kts | 142° |
| 2026-05-06 11:31 | 45.57386 | 15.29901 | 38951 ft | 492 kts | 142° |
| 2026-05-06 11:31 | 45.52297 | 15.36413 | 38944 ft | 491 kts | 142° |
| 2026-05-06 11:32 | 45.47221 | 15.42925 | 38943 ft | 490 kts | 143° |
| 2026-05-06 11:32 | 45.42151 | 15.49406 | 38943 ft | 489 kts | 143° |
| 2026-05-06 11:33 | 45.37082 | 15.55862 | 38944 ft | 489 kts | 143° |
| 2026-05-06 11:33 | 45.32008 | 15.62308 | 38943 ft | 489 kts | 143° |
| 2026-05-06 11:34 | 45.27791 | 15.67652 | 38943 ft | 488 kts | 143° |
| 2026-05-06 11:34 | 45.22731 | 15.74053 | 38944 ft | 486 kts | 143° |
| 2026-05-06 11:35 | 45.17687 | 15.80415 | 38948 ft | 486 kts | 143° |
| 2026-05-06 11:35 | 45.12632 | 15.86776 | 38940 ft | 486 kts | 143° |
| 2026-05-06 11:36 | 45.07574 | 15.93124 | 38940 ft | 486 kts | 143° |
| 2026-05-06 11:36 | 45.02520 | 15.99454 | 38946 ft | 485 kts | 143° |
| 2026-05-06 11:37 | 44.97473 | 16.05761 | 38949 ft | 484 kts | 143° |
| 2026-05-06 11:37 | 44.92428 | 16.12046 | 38952 ft | 483 kts | 143° |
| 2026-05-06 11:38 | 44.87385 | 16.18313 | 38955 ft | 483 kts | 144° |
| 2026-05-06 11:38 | 44.82334 | 16.24574 | 38955 ft | 483 kts | 143° |
| 2026-05-06 11:39 | 44.77284 | 16.30822 | 38952 ft | 483 kts | 143° |
| 2026-05-06 11:39 | 44.72230 | 16.37059 | 38960 ft | 483 kts | 143° |
| 2026-05-06 11:40 | 44.67178 | 16.43280 | 38952 ft | 483 kts | 143° |
| 2026-05-06 11:40 | 44.62124 | 16.49488 | 38959 ft | 482 kts | 143° |
| 2026-05-06 11:41 | 44.57076 | 16.55673 | 38952 ft | 481 kts | 143° |
| 2026-05-06 11:41 | 44.52027 | 16.61842 | 38957 ft | 481 kts | 144° |
| 2026-05-06 11:42 | 44.46977 | 16.67996 | 38961 ft | 481 kts | 144° |
| 2026-05-06 11:42 | 44.41921 | 16.74146 | 38965 ft | 482 kts | 143° |
| 2026-05-06 11:43 | 44.36855 | 16.80293 | 38965 ft | 482 kts | 143° |
| 2026-05-06 11:43 | 44.31793 | 16.86422 | 38975 ft | 482 kts | 143° |
| 2026-05-06 11:44 | 44.24217 | 16.95566 | 38991 ft | 482 kts | 143° |
| 2026-05-06 11:44 | 44.19131 | 17.01687 | 38989 ft | 484 kts | 143° |
| 2026-05-06 11:45 | 44.14020 | 17.07823 | 39002 ft | 485 kts | 143° |
| 2026-05-06 11:45 | 44.08908 | 17.13947 | 39007 ft | 485 kts | 143° |
| 2026-05-06 11:46 | 44.03796 | 17.20055 | 39011 ft | 485 kts | 143° |
| 2026-05-06 11:46 | 43.98678 | 17.26155 | 39025 ft | 486 kts | 142° |
| 2026-05-06 11:47 | 43.93543 | 17.32261 | 39029 ft | 487 kts | 142° |
| 2026-05-06 11:47 | 43.88399 | 17.38366 | 39023 ft | 487 kts | 143° |
| 2026-05-06 11:48 | 43.83251 | 17.44461 | 39027 ft | 486 kts | 143° |
| 2026-05-06 11:48 | 43.78108 | 17.50534 | 39038 ft | 486 kts | 142° |
| 2026-05-06 11:49 | 43.72695 | 17.56122 | 39030 ft | 485 kts | 149° |
| 2026-05-06 11:49 | 43.67048 | 17.61224 | 39047 ft | 485 kts | 150° |
| 2026-05-06 11:50 | 43.61366 | 17.66232 | 39049 ft | 484 kts | 150° |
| 2026-05-06 11:50 | 43.55677 | 17.71235 | 39049 ft | 485 kts | 150° |
| 2026-05-06 11:51 | 43.50010 | 17.76224 | 39044 ft | 485 kts | 150° |
| 2026-05-06 11:51 | 43.44311 | 17.81243 | 39046 ft | 487 kts | 150° |
| 2026-05-06 11:52 | 43.38637 | 17.86228 | 39023 ft | 487 kts | 150° |
| 2026-05-06 11:52 | 43.32929 | 17.91233 | 39020 ft | 487 kts | 150° |
| 2026-05-06 11:53 | 43.27218 | 17.96228 | 39019 ft | 486 kts | 150° |
| 2026-05-06 11:53 | 43.21507 | 18.01212 | 39028 ft | 486 kts | 150° |
| 2026-05-06 11:54 | 43.15817 | 18.06165 | 39033 ft | 486 kts | 151° |
| 2026-05-06 11:54 | 43.10111 | 18.11121 | 39049 ft | 486 kts | 150° |
| 2026-05-06 11:55 | 43.04398 | 18.16072 | 39068 ft | 486 kts | 151° |
| 2026-05-06 11:55 | 42.98686 | 18.21011 | 39075 ft | 486 kts | 151° |
| 2026-05-06 11:56 | 42.92970 | 18.25943 | 39069 ft | 486 kts | 151° |
| 2026-05-06 11:56 | 42.87252 | 18.30866 | 39083 ft | 486 kts | 151° |
| 2026-05-06 11:57 | 42.81531 | 18.35778 | 39086 ft | 486 kts | 151° |
| 2026-05-06 11:57 | 42.75816 | 18.40675 | 39091 ft | 486 kts | 151° |
| 2026-05-06 11:58 | 42.70088 | 18.45573 | 39089 ft | 487 kts | 151° |
| 2026-05-06 11:58 | 42.64342 | 18.50474 | 39094 ft | 488 kts | 151° |
| 2026-05-06 11:59 | 42.58592 | 18.55369 | 39094 ft | 488 kts | 151° |
| 2026-05-06 11:59 | 42.52842 | 18.60256 | 39099 ft | 487 kts | 151° |
| 2026-05-06 12:00 | 42.47092 | 18.65130 | 39099 ft | 487 kts | 151° |
| 2026-05-06 12:00 | 42.41346 | 18.69991 | 39102 ft | 487 kts | 151° |
| 2026-05-06 12:01 | 42.35592 | 18.74847 | 39103 ft | 487 kts | 151° |
| 2026-05-06 12:01 | 42.29837 | 18.79691 | 39090 ft | 488 kts | 151° |
| 2026-05-06 12:02 | 42.24062 | 18.84542 | 39093 ft | 489 kts | 151° |
| 2026-05-06 12:02 | 42.18276 | 18.89395 | 39097 ft | 489 kts | 151° |
| 2026-05-06 12:03 | 42.12533 | 18.94200 | 39099 ft | 490 kts | 151° |
| 2026-05-06 12:03 | 42.06742 | 18.99035 | 39100 ft | 490 kts | 151° |
| 2026-05-06 12:04 | 42.00953 | 19.03856 | 39094 ft | 489 kts | 152° |
| 2026-05-06 12:04 | 41.95170 | 19.08663 | 39099 ft | 489 kts | 152° |
| 2026-05-06 12:05 | 41.89376 | 19.13468 | 39098 ft | 489 kts | 152° |
| 2026-05-06 12:05 | 41.83572 | 19.18270 | 39102 ft | 490 kts | 152° |
| 2026-05-06 12:06 | 41.77761 | 19.23069 | 39106 ft | 490 kts | 152° |
| 2026-05-06 12:06 | 41.71955 | 19.27855 | 39101 ft | 490 kts | 152° |
| 2026-05-06 12:07 | 41.66150 | 19.32628 | 39088 ft | 490 kts | 152° |
| 2026-05-06 12:07 | 41.60345 | 19.37390 | 39086 ft | 490 kts | 152° |
| 2026-05-06 12:08 | 41.54535 | 19.42147 | 39100 ft | 490 kts | 152° |
| 2026-05-06 12:08 | 41.48733 | 19.46887 | 39087 ft | 489 kts | 152° |
| 2026-05-06 12:09 | 41.42913 | 19.51631 | 39091 ft | 491 kts | 152° |
| 2026-05-06 12:09 | 41.37077 | 19.56378 | 39092 ft | 491 kts | 152° |
| 2026-05-06 12:10 | 41.31281 | 19.61084 | 39081 ft | 491 kts | 152° |
| 2026-05-06 12:10 | 41.25408 | 19.65842 | 39090 ft | 491 kts | 152° |
| 2026-05-06 12:11 | 41.19611 | 19.70529 | 39095 ft | 491 kts | 152° |
| 2026-05-06 12:11 | 41.13775 | 19.75236 | 39093 ft | 491 kts | 152° |
| 2026-05-06 12:12 | 41.07938 | 19.79933 | 39086 ft | 491 kts | 152° |
| 2026-05-06 12:12 | 41.02083 | 19.84635 | 39086 ft | 493 kts | 152° |
| 2026-05-06 12:13 | 40.96211 | 19.89343 | 39087 ft | 494 kts | 152° |
| 2026-05-06 12:13 | 40.90332 | 19.94045 | 39084 ft | 494 kts | 152° |
| 2026-05-06 12:14 | 40.84457 | 19.98735 | 39076 ft | 494 kts | 152° |
| 2026-05-06 12:14 | 40.78579 | 20.03418 | 39079 ft | 493 kts | 152° |
| 2026-05-06 12:15 | 40.72701 | 20.08090 | 39080 ft | 493 kts | 152° |
| 2026-05-06 12:15 | 40.66824 | 20.12752 | 39078 ft | 493 kts | 152° |
| 2026-05-06 12:16 | 40.60938 | 20.17410 | 39072 ft | 495 kts | 152° |
| 2026-05-06 12:16 | 40.55032 | 20.22075 | 39076 ft | 495 kts | 152° |
| 2026-05-06 12:17 | 40.49167 | 20.26699 | 39077 ft | 495 kts | 152° |
| 2026-05-06 12:17 | 40.43219 | 20.31377 | 39073 ft | 495 kts | 152° |
| 2026-05-06 12:18 | 40.37358 | 20.35978 | 39075 ft | 495 kts | 152° |
| 2026-05-06 12:18 | 40.31446 | 20.40611 | 39071 ft | 495 kts | 152° |
| 2026-05-06 12:19 | 40.25541 | 20.45228 | 39073 ft | 495 kts | 152° |
| 2026-05-06 12:19 | 40.19629 | 20.49838 | 39080 ft | 496 kts | 152° |
| 2026-05-06 12:20 | 40.13688 | 20.54463 | 39071 ft | 497 kts | 152° |
| 2026-05-06 12:20 | 40.07743 | 20.59083 | 39077 ft | 497 kts | 152° |
| 2026-05-06 12:21 | 40.01701 | 20.63452 | 39082 ft | 496 kts | 156° |
| 2026-05-06 12:21 | 39.95532 | 20.67458 | 39095 ft | 495 kts | 156° |
| 2026-05-06 12:22 | 39.89364 | 20.71467 | 39107 ft | 495 kts | 156° |
| 2026-05-06 12:22 | 39.84258 | 20.74841 | 39118 ft | 495 kts | 156° |
| 2026-05-06 12:23 | 39.78125 | 20.78921 | 39130 ft | 495 kts | 155° |
| 2026-05-06 12:23 | 39.71994 | 20.83000 | 39128 ft | 496 kts | 155° |
| 2026-05-06 12:24 | 39.65830 | 20.87089 | 39130 ft | 498 kts | 155° |
| 2026-05-06 12:24 | 39.59654 | 20.91177 | 39124 ft | 498 kts | 155° |
| 2026-05-06 12:25 | 39.53532 | 20.95220 | 39116 ft | 497 kts | 156° |
| 2026-05-06 12:25 | 39.47366 | 20.99284 | 39113 ft | 497 kts | 156° |
| 2026-05-06 12:26 | 39.41197 | 21.03341 | 39107 ft | 497 kts | 156° |
| 2026-05-06 12:26 | 39.35037 | 21.07383 | 39105 ft | 497 kts | 155° |
| 2026-05-06 12:27 | 39.28879 | 21.11419 | 39109 ft | 496 kts | 156° |
| 2026-05-06 12:27 | 39.22713 | 21.15448 | 39104 ft | 497 kts | 156° |
| 2026-05-06 12:28 | 39.16525 | 21.19485 | 39107 ft | 499 kts | 156° |
| 2026-05-06 12:28 | 39.10320 | 21.23526 | 39107 ft | 500 kts | 155° |
| 2026-05-06 12:29 | 39.04116 | 21.27560 | 39108 ft | 500 kts | 155° |
| 2026-05-06 12:29 | 38.97910 | 21.31586 | 39106 ft | 500 kts | 156° |
| 2026-05-06 12:30 | 38.91698 | 21.35608 | 39106 ft | 500 kts | 156° |
| 2026-05-06 12:30 | 38.85488 | 21.39621 | 39106 ft | 500 kts | 155° |
| 2026-05-06 12:31 | 38.79265 | 21.43629 | 39103 ft | 501 kts | 156° |
| 2026-05-06 12:31 | 38.73043 | 21.47636 | 39101 ft | 501 kts | 156° |
| 2026-05-06 12:32 | 38.66827 | 21.51672 | 39099 ft | 501 kts | 155° |
| 2026-05-06 12:32 | 38.60650 | 21.55787 | 39095 ft | 501 kts | 155° |
| 2026-05-06 12:33 | 38.54516 | 21.59874 | 39097 ft | 501 kts | 155° |
| 2026-05-06 12:33 | 38.48335 | 21.63966 | 39101 ft | 501 kts | 155° |
| 2026-05-06 12:34 | 38.42146 | 21.68048 | 39101 ft | 501 kts | 155° |
| 2026-05-06 12:34 | 38.35958 | 21.72118 | 39098 ft | 500 kts | 155° |
| 2026-05-06 12:35 | 38.29777 | 21.76176 | 39102 ft | 500 kts | 155° |
| 2026-05-06 12:35 | 38.23593 | 21.80228 | 39096 ft | 500 kts | 155° |
| 2026-05-06 12:36 | 38.17396 | 21.84281 | 39099 ft | 501 kts | 155° |
| 2026-05-06 12:36 | 38.11194 | 21.88330 | 39099 ft | 501 kts | 155° |
| 2026-05-06 12:37 | 38.04993 | 21.92372 | 39102 ft | 501 kts | 155° |
| 2026-05-06 12:37 | 37.98794 | 21.96405 | 39097 ft | 501 kts | 155° |
| 2026-05-06 12:38 | 37.92595 | 22.00426 | 39102 ft | 501 kts | 155° |
| 2026-05-06 12:38 | 37.86395 | 22.04444 | 39097 ft | 500 kts | 155° |
| 2026-05-06 12:39 | 37.80199 | 22.08451 | 39092 ft | 500 kts | 155° |
| 2026-05-06 12:39 | 37.74001 | 22.12451 | 39091 ft | 500 kts | 155° |
| 2026-05-06 12:40 | 37.67795 | 22.16448 | 39094 ft | 501 kts | 155° |
| 2026-05-06 12:40 | 37.61619 | 22.20419 | 39085 ft | 502 kts | 155° |
| 2026-05-06 12:41 | 37.55399 | 22.24412 | 39098 ft | 502 kts | 155° |
| 2026-05-06 12:41 | 37.49130 | 22.28429 | 39080 ft | 502 kts | 156° |
| 2026-05-06 12:42 | 37.42949 | 22.32380 | 39083 ft | 502 kts | 155° |
| 2026-05-06 12:42 | 37.36726 | 22.36349 | 39086 ft | 502 kts | 155° |
| 2026-05-06 12:43 | 37.30490 | 22.40304 | 39085 ft | 502 kts | 156° |
| 2026-05-06 12:43 | 37.24255 | 22.44249 | 39074 ft | 502 kts | 156° |
| 2026-05-06 12:44 | 37.18015 | 22.48191 | 39075 ft | 503 kts | 155° |
| 2026-05-06 12:44 | 37.11759 | 22.52138 | 39083 ft | 503 kts | 156° |
| 2026-05-06 12:45 | 37.05506 | 22.56076 | 39084 ft | 503 kts | 156° |
| 2026-05-06 12:46 | 36.96122 | 22.61972 | 39082 ft | 503 kts | 156° |
| 2026-05-06 12:46 | 36.89864 | 22.65894 | 39084 ft | 503 kts | 156° |
| 2026-05-06 12:47 | 36.83603 | 22.69811 | 39087 ft | 503 kts | 156° |
| 2026-05-06 12:47 | 36.77351 | 22.73716 | 39087 ft | 503 kts | 156° |
| 2026-05-06 12:48 | 36.71098 | 22.77614 | 39083 ft | 503 kts | 156° |
| 2026-05-06 12:48 | 36.64832 | 22.81512 | 39085 ft | 504 kts | 156° |
| 2026-05-06 12:49 | 36.58556 | 22.85410 | 39080 ft | 504 kts | 156° |
| 2026-05-06 12:49 | 36.52282 | 22.89300 | 39091 ft | 504 kts | 156° |
| 2026-05-06 12:50 | 36.46009 | 22.93183 | 39087 ft | 504 kts | 156° |
| 2026-05-06 12:50 | 36.39735 | 22.97058 | 39086 ft | 504 kts | 156° |
| 2026-05-06 12:51 | 36.33497 | 23.00904 | 39087 ft | 504 kts | 156° |
| 2026-05-06 12:51 | 36.27217 | 23.04769 | 39089 ft | 504 kts | 156° |
| 2026-05-06 12:52 | 36.20935 | 23.08629 | 39086 ft | 504 kts | 156° |
| 2026-05-06 12:52 | 36.14646 | 23.12486 | 39095 ft | 505 kts | 156° |
| 2026-05-06 12:53 | 36.08352 | 23.16344 | 39091 ft | 505 kts | 156° |
| 2026-05-06 12:53 | 36.02048 | 23.20198 | 39097 ft | 505 kts | 156° |
| 2026-05-06 12:54 | 35.95740 | 23.24044 | 39097 ft | 505 kts | 156° |
| 2026-05-06 12:54 | 35.89435 | 23.27883 | 39103 ft | 505 kts | 156° |
| 2026-05-06 12:55 | 35.83125 | 23.31719 | 39097 ft | 505 kts | 156° |
| 2026-05-06 12:55 | 35.76823 | 23.35543 | 39102 ft | 505 kts | 156° |
| 2026-05-06 12:56 | 35.70519 | 23.39363 | 39105 ft | 505 kts | 156° |
| 2026-05-06 12:56 | 35.64212 | 23.43177 | 39143 ft | 506 kts | 156° |
| 2026-05-06 12:56 | 35.61052 | 23.45086 | 39299 ft | 506 kts | 156° |
| 2026-05-06 12:57 | 35.57897 | 23.46990 | 39437 ft | 506 kts | 156° |
| 2026-05-06 12:57 | 35.54741 | 23.48893 | 39595 ft | 505 kts | 156° |
| 2026-05-06 12:57 | 35.51587 | 23.50793 | 39725 ft | 505 kts | 157° |
| 2026-05-06 12:57 | 35.48429 | 23.52693 | 39846 ft | 506 kts | 157° |
| 2026-05-06 12:58 | 35.45272 | 23.54592 | 39964 ft | 506 kts | 157° |
| 2026-05-06 12:58 | 35.42156 | 23.56464 | 40078 ft | 506 kts | 157° |
| 2026-05-06 12:58 | 35.38992 | 23.58363 | 40196 ft | 506 kts | 157° |
| 2026-05-06 12:58 | 35.35829 | 23.60261 | 40310 ft | 506 kts | 157° |
| 2026-05-06 12:59 | 35.32661 | 23.62160 | 40424 ft | 507 kts | 157° |
| 2026-05-06 12:59 | 35.26328 | 23.65949 | 40622 ft | 507 kts | 157° |
| 2026-05-06 12:59 | 35.23158 | 23.67843 | 40767 ft | 506 kts | 157° |
| 2026-05-06 13:00 | 35.20005 | 23.69754 | 40873 ft | 507 kts | 156° |
| 2026-05-06 13:00 | 35.13741 | 23.73738 | 41029 ft | 508 kts | 155° |
| 2026-05-06 13:01 | 35.07480 | 23.77769 | 41113 ft | 509 kts | 155° |
| 2026-05-06 13:01 | 35.01209 | 23.81770 | 41105 ft | 509 kts | 155° |
| 2026-05-06 13:02 | 34.94927 | 23.85750 | 41108 ft | 509 kts | 156° |
| 2026-05-06 13:02 | 34.88639 | 23.89720 | 41110 ft | 509 kts | 156° |
| 2026-05-06 13:03 | 34.82354 | 23.93683 | 41108 ft | 509 kts | 156° |
| 2026-05-06 13:03 | 34.76066 | 23.97640 | 41108 ft | 509 kts | 156° |
| 2026-05-06 13:04 | 34.69779 | 24.01591 | 41110 ft | 509 kts | 156° |
| 2026-05-06 13:04 | 34.63526 | 24.05515 | 41115 ft | 509 kts | 156° |
| 2026-05-06 13:05 | 34.57233 | 24.09456 | 41115 ft | 509 kts | 156° |
| 2026-05-06 13:05 | 34.50935 | 24.13394 | 41112 ft | 509 kts | 156° |
| 2026-05-06 13:06 | 34.44633 | 24.17327 | 41116 ft | 509 kts | 156° |
| 2026-05-06 13:06 | 34.38334 | 24.21252 | 41110 ft | 509 kts | 156° |
| 2026-05-06 13:07 | 34.32036 | 24.25169 | 41127 ft | 509 kts | 156° |
| 2026-05-06 13:07 | 34.25728 | 24.29086 | 41107 ft | 509 kts | 156° |
| 2026-05-06 13:08 | 34.19425 | 24.32994 | 41115 ft | 509 kts | 156° |
| 2026-05-06 13:08 | 34.13124 | 24.36894 | 41115 ft | 509 kts | 156° |
| 2026-05-06 13:09 | 34.06824 | 24.40786 | 41116 ft | 509 kts | 156° |
| 2026-05-06 13:09 | 34.00598 | 24.44873 | 41120 ft | 513 kts | 149° |
| 2026-05-06 13:10 | 33.95026 | 24.50270 | 41102 ft | 515 kts | 141° |
| 2026-05-06 13:10 | 33.89668 | 24.56013 | 41119 ft | 516 kts | 140° |
| 2026-05-06 13:11 | 33.84338 | 24.61806 | 41121 ft | 516 kts | 141° |
| 2026-05-06 13:11 | 33.78998 | 24.67568 | 41118 ft | 516 kts | 141° |
| 2026-05-06 13:12 | 33.73642 | 24.73308 | 41121 ft | 516 kts | 141° |
| 2026-05-06 13:12 | 33.68283 | 24.79032 | 41118 ft | 516 kts | 141° |
| 2026-05-06 13:13 | 33.62952 | 24.84715 | 41110 ft | 516 kts | 141° |
| 2026-05-06 13:13 | 33.57588 | 24.90427 | 41121 ft | 516 kts | 141° |
| 2026-05-06 13:14 | 33.52218 | 24.96135 | 41121 ft | 516 kts | 141° |
| 2026-05-06 13:14 | 33.46842 | 25.01839 | 41116 ft | 516 kts | 141° |
| 2026-05-06 13:15 | 33.42342 | 25.06607 | 41121 ft | 516 kts | 141° |
| 2026-05-06 13:15 | 33.36960 | 25.12299 | 41121 ft | 516 kts | 141° |
| 2026-05-06 13:16 | 33.31575 | 25.17986 | 41121 ft | 516 kts | 141° |
| 2026-05-06 13:16 | 33.26189 | 25.23663 | 41121 ft | 516 kts | 141° |
| 2026-05-06 13:17 | 33.20802 | 25.29332 | 41124 ft | 516 kts | 141° |
| 2026-05-06 13:17 | 33.15411 | 25.34997 | 41124 ft | 516 kts | 141° |
| 2026-05-06 13:18 | 33.10018 | 25.40653 | 41123 ft | 516 kts | 141° |
| 2026-05-06 13:18 | 33.04658 | 25.46263 | 41124 ft | 516 kts | 141° |
| 2026-05-06 13:19 | 32.99259 | 25.51907 | 41118 ft | 516 kts | 141° |
| 2026-05-06 13:19 | 32.93854 | 25.57547 | 41124 ft | 516 kts | 142° |
| 2026-05-06 13:20 | 32.88450 | 25.63175 | 41123 ft | 516 kts | 142° |
| 2026-05-06 13:20 | 32.83042 | 25.68800 | 41124 ft | 517 kts | 142° |
| 2026-05-06 13:21 | 32.77624 | 25.74424 | 41125 ft | 517 kts | 142° |
| 2026-05-06 13:21 | 32.72207 | 25.80039 | 41124 ft | 517 kts | 142° |
| 2026-05-06 13:22 | 32.66784 | 25.85649 | 41124 ft | 517 kts | 142° |
| 2026-05-06 13:22 | 32.61358 | 25.91255 | 41124 ft | 517 kts | 142° |
| 2026-05-06 13:23 | 32.55931 | 25.96852 | 41125 ft | 517 kts | 142° |
| 2026-05-06 13:23 | 32.50497 | 26.02447 | 41127 ft | 517 kts | 142° |
| 2026-05-06 13:24 | 32.45059 | 26.08035 | 41126 ft | 517 kts | 142° |
| 2026-05-06 13:24 | 32.39619 | 26.13618 | 41124 ft | 517 kts | 142° |
| 2026-05-06 13:25 | 32.34183 | 26.19187 | 41123 ft | 517 kts | 142° |
| 2026-05-06 13:25 | 32.28740 | 26.24753 | 41124 ft | 517 kts | 142° |
| 2026-05-06 13:26 | 32.23296 | 26.30312 | 41126 ft | 517 kts | 142° |
| 2026-05-06 13:26 | 32.17848 | 26.35865 | 41127 ft | 517 kts | 142° |
| 2026-05-06 13:27 | 32.12397 | 26.41413 | 41126 ft | 517 kts | 142° |
| 2026-05-06 13:27 | 32.06943 | 26.46954 | 41112 ft | 517 kts | 143° |
| 2026-05-06 13:28 | 32.01489 | 26.52487 | 41126 ft | 517 kts | 143° |
| 2026-05-06 13:28 | 31.96068 | 26.57976 | 41123 ft | 517 kts | 143° |
| 2026-05-06 13:29 | 31.90611 | 26.63494 | 41127 ft | 517 kts | 143° |
| 2026-05-06 13:29 | 31.85146 | 26.69011 | 41135 ft | 517 kts | 143° |
| 2026-05-06 13:30 | 31.79679 | 26.74520 | 41135 ft | 517 kts | 143° |
| 2026-05-06 13:30 | 31.74213 | 26.80020 | 41130 ft | 517 kts | 143° |
| 2026-05-06 13:31 | 31.68742 | 26.85516 | 41142 ft | 517 kts | 143° |
| 2026-05-06 13:31 | 31.63272 | 26.91002 | 41144 ft | 518 kts | 143° |
| 2026-05-06 13:32 | 31.57794 | 26.96487 | 41151 ft | 518 kts | 143° |
| 2026-05-06 13:32 | 31.52314 | 27.01966 | 41151 ft | 518 kts | 143° |
| 2026-05-06 13:33 | 31.46831 | 27.07439 | 41154 ft | 518 kts | 143° |
| 2026-05-06 13:33 | 31.41344 | 27.12906 | 41163 ft | 518 kts | 143° |
| 2026-05-06 13:34 | 31.35856 | 27.18367 | 41143 ft | 518 kts | 143° |
| 2026-05-06 13:34 | 31.30817 | 27.24424 | 41168 ft | 524 kts | 129° |
| 2026-05-06 13:35 | 31.26584 | 27.31386 | 41146 ft | 526 kts | 127° |
| 2026-05-06 13:35 | 31.22498 | 27.38488 | 41164 ft | 526 kts | 126° |
| 2026-05-06 13:36 | 31.18420 | 27.45593 | 41154 ft | 526 kts | 127° |
| 2026-05-06 13:36 | 31.14330 | 27.52658 | 41148 ft | 527 kts | 127° |
| 2026-05-06 13:37 | 31.10194 | 27.59713 | 41141 ft | 527 kts | 128° |
| 2026-05-06 13:37 | 31.05997 | 27.66718 | 41135 ft | 526 kts | 128° |
| 2026-05-06 13:38 | 31.01795 | 27.73714 | 41128 ft | 527 kts | 128° |
| 2026-05-06 13:38 | 30.97596 | 27.80716 | 41129 ft | 527 kts | 128° |
| 2026-05-06 13:39 | 30.93401 | 27.87710 | 41128 ft | 527 kts | 128° |
| 2026-05-06 13:39 | 30.89228 | 27.94658 | 41124 ft | 527 kts | 128° |
| 2026-05-06 13:40 | 30.85021 | 28.01650 | 41119 ft | 527 kts | 128° |
| 2026-05-06 13:40 | 30.80814 | 28.08629 | 41120 ft | 527 kts | 128° |
| 2026-05-06 13:41 | 30.76599 | 28.15607 | 41118 ft | 527 kts | 128° |
| 2026-05-06 13:41 | 30.72383 | 28.22575 | 41118 ft | 527 kts | 128° |
| 2026-05-06 13:42 | 30.68163 | 28.29538 | 41116 ft | 527 kts | 128° |
| 2026-05-06 13:42 | 30.63939 | 28.36497 | 41098 ft | 527 kts | 128° |
| 2026-05-06 13:43 | 30.59705 | 28.43457 | 41108 ft | 528 kts | 128° |
| 2026-05-06 13:43 | 30.55465 | 28.50417 | 41102 ft | 528 kts | 128° |
| 2026-05-06 13:44 | 30.51215 | 28.57380 | 41094 ft | 528 kts | 128° |
| 2026-05-06 13:44 | 30.46968 | 28.64328 | 41094 ft | 528 kts | 128° |
| 2026-05-06 13:45 | 30.42711 | 28.71278 | 41088 ft | 529 kts | 129° |
| 2026-05-06 13:45 | 30.36346 | 28.81649 | 41082 ft | 529 kts | 129° |
| 2026-05-06 13:46 | 30.32077 | 28.88588 | 41079 ft | 529 kts | 129° |
| 2026-05-06 13:46 | 30.27803 | 28.95525 | 41079 ft | 529 kts | 129° |
| 2026-05-06 13:47 | 30.23527 | 29.02453 | 41065 ft | 529 kts | 129° |
| 2026-05-06 13:47 | 30.19241 | 29.09384 | 41083 ft | 530 kts | 129° |
| 2026-05-06 13:48 | 30.14958 | 29.16327 | 41069 ft | 531 kts | 129° |
| 2026-05-06 13:48 | 30.10678 | 29.23283 | 41064 ft | 531 kts | 128° |
| 2026-05-06 13:49 | 30.06459 | 29.30278 | 41084 ft | 531 kts | 128° |
| 2026-05-06 13:49 | 30.02243 | 29.37286 | 41066 ft | 531 kts | 128° |
| 2026-05-06 13:50 | 29.98017 | 29.44282 | 41079 ft | 531 kts | 128° |
| 2026-05-06 13:50 | 29.93782 | 29.51265 | 41079 ft | 531 kts | 128° |
| 2026-05-06 13:51 | 29.89541 | 29.58242 | 41075 ft | 532 kts | 128° |
| 2026-05-06 13:51 | 29.85295 | 29.65216 | 41076 ft | 532 kts | 128° |
| 2026-05-06 13:52 | 29.81042 | 29.72190 | 41072 ft | 532 kts | 128° |
| 2026-05-06 13:52 | 29.76791 | 29.79151 | 41072 ft | 532 kts | 128° |
| 2026-05-06 13:53 | 29.72532 | 29.86112 | 41071 ft | 532 kts | 129° |
| 2026-05-06 13:53 | 29.68273 | 29.93061 | 41073 ft | 531 kts | 129° |
| 2026-05-06 13:54 | 29.64012 | 30.00001 | 41073 ft | 531 kts | 129° |
| 2026-05-06 13:54 | 29.59747 | 30.06937 | 41073 ft | 531 kts | 129° |
| 2026-05-06 13:55 | 29.55474 | 30.13873 | 41063 ft | 531 kts | 129° |
| 2026-05-06 13:55 | 29.51201 | 30.20798 | 41070 ft | 531 kts | 129° |
| 2026-05-06 13:56 | 29.46924 | 30.27717 | 41069 ft | 531 kts | 129° |
| 2026-05-06 13:56 | 29.42648 | 30.34624 | 41071 ft | 531 kts | 129° |
| 2026-05-06 13:57 | 29.38075 | 30.41231 | 41072 ft | 527 kts | 137° |
| 2026-05-06 13:57 | 29.33071 | 30.47349 | 41075 ft | 526 kts | 138° |
| 2026-05-06 13:58 | 29.27995 | 30.53378 | 41072 ft | 525 kts | 139° |
| 2026-05-06 13:58 | 29.22912 | 30.59396 | 41075 ft | 525 kts | 139° |
| 2026-05-06 13:59 | 29.17875 | 30.65374 | 41075 ft | 526 kts | 138° |
| 2026-05-06 13:59 | 29.12800 | 30.71398 | 41075 ft | 525 kts | 138° |
| 2026-05-06 14:00 | 29.07755 | 30.77382 | 41080 ft | 526 kts | 139° |
| 2026-05-06 14:00 | 29.02678 | 30.83392 | 41074 ft | 526 kts | 139° |
| 2026-05-06 14:01 | 28.97600 | 30.89394 | 41081 ft | 526 kts | 139° |
| 2026-05-06 14:01 | 28.92512 | 30.95398 | 41082 ft | 526 kts | 139° |
| 2026-05-06 14:02 | 28.87430 | 31.01387 | 41077 ft | 525 kts | 139° |
| 2026-05-06 14:02 | 28.83169 | 31.06401 | 41081 ft | 525 kts | 139° |
| 2026-05-06 14:03 | 28.78082 | 31.12379 | 41074 ft | 525 kts | 139° |
| 2026-05-06 14:03 | 28.72994 | 31.18350 | 41075 ft | 525 kts | 139° |
| 2026-05-06 14:04 | 28.67916 | 31.24342 | 41055 ft | 526 kts | 137° |
| 2026-05-06 14:04 | 28.63005 | 31.30526 | 41072 ft | 527 kts | 136° |
| 2026-05-06 14:05 | 28.58173 | 31.36710 | 41075 ft | 526 kts | 136° |
| 2026-05-06 14:05 | 28.53285 | 31.42903 | 41081 ft | 526 kts | 136° |
| 2026-05-06 14:06 | 28.48373 | 31.49074 | 41077 ft | 526 kts | 137° |
| 2026-05-06 14:06 | 28.43459 | 31.55228 | 41075 ft | 526 kts | 137° |
| 2026-05-06 14:07 | 28.38544 | 31.61374 | 41072 ft | 525 kts | 137° |
| 2026-05-06 14:07 | 28.33630 | 31.67512 | 41067 ft | 525 kts | 137° |
| 2026-05-06 14:08 | 28.28715 | 31.73642 | 41071 ft | 525 kts | 137° |
| 2026-05-06 14:08 | 28.23793 | 31.79772 | 41057 ft | 525 kts | 137° |
| 2026-05-06 14:09 | 28.18873 | 31.85891 | 41058 ft | 525 kts | 137° |
| 2026-05-06 14:09 | 28.13957 | 31.91996 | 41051 ft | 525 kts | 137° |
| 2026-05-06 14:10 | 28.09034 | 31.98100 | 41054 ft | 525 kts | 137° |
| 2026-05-06 14:10 | 28.04190 | 32.04284 | 41052 ft | 528 kts | 131° |
| 2026-05-06 14:11 | 28.00290 | 32.11388 | 41046 ft | 533 kts | 123° |
| 2026-05-06 14:11 | 27.96720 | 32.18752 | 41036 ft | 534 kts | 122° |
| 2026-05-06 14:12 | 27.93199 | 32.26148 | 41036 ft | 534 kts | 122° |
| 2026-05-06 14:12 | 27.89659 | 32.33529 | 41001 ft | 534 kts | 122° |
| 2026-05-06 14:13 | 27.86102 | 32.40891 | 41015 ft | 533 kts | 122° |
| 2026-05-06 14:13 | 27.82560 | 32.48192 | 41016 ft | 533 kts | 122° |
| 2026-05-06 14:14 | 27.78993 | 32.55534 | 41007 ft | 533 kts | 122° |
| 2026-05-06 14:14 | 27.75420 | 32.62877 | 40991 ft | 534 kts | 123° |
| 2026-05-06 14:15 | 27.71847 | 32.70208 | 41005 ft | 533 kts | 123° |
| 2026-05-06 14:15 | 27.68274 | 32.77528 | 41002 ft | 532 kts | 123° |
| 2026-05-06 14:16 | 27.64698 | 32.84839 | 40993 ft | 532 kts | 123° |
| 2026-05-06 14:16 | 27.61121 | 32.92140 | 40986 ft | 532 kts | 123° |
| 2026-05-06 14:17 | 27.57540 | 32.99438 | 40986 ft | 532 kts | 123° |
| 2026-05-06 14:17 | 27.53959 | 33.06723 | 40982 ft | 531 kts | 123° |
| 2026-05-06 14:18 | 27.50376 | 33.13999 | 40979 ft | 531 kts | 123° |
| 2026-05-06 14:18 | 27.46786 | 33.21276 | 40987 ft | 531 kts | 123° |
| 2026-05-06 14:19 | 27.43200 | 33.28535 | 40981 ft | 530 kts | 123° |
| 2026-05-06 14:19 | 27.39614 | 33.35779 | 40984 ft | 530 kts | 123° |
| 2026-05-06 14:20 | 27.36024 | 33.43023 | 40985 ft | 530 kts | 123° |
| 2026-05-06 14:20 | 27.32426 | 33.50266 | 40975 ft | 530 kts | 123° |
| 2026-05-06 14:21 | 27.28825 | 33.57499 | 40977 ft | 530 kts | 123° |
| 2026-05-06 14:21 | 27.25247 | 33.64677 | 40978 ft | 530 kts | 123° |
| 2026-05-06 14:22 | 27.21619 | 33.71945 | 40974 ft | 530 kts | 123° |
| 2026-05-06 14:22 | 27.18098 | 33.79155 | 40967 ft | 532 kts | 118° |
| 2026-05-06 14:23 | 27.15199 | 33.86807 | 40966 ft | 534 kts | 116° |
| 2026-05-06 14:23 | 27.12441 | 33.94550 | 40964 ft | 534 kts | 115° |
| 2026-05-06 14:24 | 27.09707 | 34.02297 | 40962 ft | 534 kts | 115° |
| 2026-05-06 14:24 | 27.06956 | 34.10040 | 40960 ft | 534 kts | 116° |
| 2026-05-06 14:25 | 27.04192 | 34.17776 | 40955 ft | 534 kts | 116° |
| 2026-05-06 14:25 | 27.01424 | 34.25506 | 40952 ft | 534 kts | 116° |
| 2026-05-06 14:26 | 26.98649 | 34.33236 | 40947 ft | 535 kts | 116° |
| 2026-05-06 14:26 | 26.95865 | 34.40963 | 40947 ft | 535 kts | 116° |
| 2026-05-06 14:27 | 26.93077 | 34.48690 | 40928 ft | 535 kts | 116° |
| 2026-05-06 14:27 | 26.90288 | 34.56409 | 40939 ft | 534 kts | 116° |
| 2026-05-06 14:28 | 26.87496 | 34.64121 | 40933 ft | 534 kts | 116° |
| 2026-05-06 14:28 | 26.84701 | 34.71826 | 40933 ft | 534 kts | 116° |
| 2026-05-06 14:29 | 26.81901 | 34.79530 | 40928 ft | 534 kts | 117° |
| 2026-05-06 14:29 | 26.79099 | 34.87224 | 40923 ft | 534 kts | 117° |
| 2026-05-06 14:30 | 26.76294 | 34.94913 | 40925 ft | 534 kts | 116° |
| 2026-05-06 14:30 | 26.73490 | 35.02598 | 40920 ft | 534 kts | 117° |
| 2026-05-06 14:31 | 26.70676 | 35.10280 | 40919 ft | 533 kts | 117° |
| 2026-05-06 14:31 | 26.67860 | 35.17954 | 40921 ft | 533 kts | 117° |
| 2026-05-06 14:32 | 26.65041 | 35.25625 | 40903 ft | 533 kts | 117° |
| 2026-05-06 14:32 | 26.62219 | 35.33290 | 40916 ft | 533 kts | 117° |
| 2026-05-06 14:33 | 26.59392 | 35.40954 | 40915 ft | 533 kts | 117° |
| 2026-05-06 14:33 | 26.56582 | 35.48557 | 40914 ft | 533 kts | 117° |
| 2026-05-06 14:34 | 26.53712 | 35.56188 | 40915 ft | 533 kts | 118° |
| 2026-05-06 14:34 | 26.50789 | 35.63787 | 40909 ft | 533 kts | 118° |
| 2026-05-06 14:35 | 26.47866 | 35.71386 | 40910 ft | 533 kts | 118° |
| 2026-05-06 14:35 | 26.44949 | 35.78985 | 40896 ft | 533 kts | 118° |
| 2026-05-06 14:36 | 26.42032 | 35.86584 | 40911 ft | 532 kts | 118° |
| 2026-05-06 14:36 | 26.39113 | 35.94172 | 40911 ft | 532 kts | 118° |
| 2026-05-06 14:37 | 26.36189 | 36.01759 | 40913 ft | 532 kts | 118° |
| 2026-05-06 14:37 | 26.33262 | 36.09337 | 40910 ft | 532 kts | 119° |
| 2026-05-06 14:38 | 26.30330 | 36.16916 | 40910 ft | 532 kts | 119° |
| 2026-05-06 14:38 | 26.27395 | 36.24490 | 40916 ft | 532 kts | 119° |
| 2026-05-06 14:39 | 26.24476 | 36.32008 | 40911 ft | 531 kts | 119° |
| 2026-05-06 14:39 | 26.21540 | 36.39554 | 40911 ft | 531 kts | 119° |
| 2026-05-06 14:40 | 26.19011 | 36.47319 | 40913 ft | 540 kts | 106° |
| 2026-05-06 14:40 | 26.18509 | 36.51475 | 40904 ft | 546 kts | 95° |
| 2026-05-06 14:40 | 26.18612 | 36.55718 | 40911 ft | 549 kts | 89° |
| 2026-05-06 14:41 | 26.19361 | 36.64187 | 40913 ft | 551 kts | 85° |
| 2026-05-06 14:41 | 26.20280 | 36.72657 | 40914 ft | 551 kts | 85° |
| 2026-05-06 14:42 | 26.21173 | 36.81132 | 40917 ft | 551 kts | 86° |
| 2026-05-06 14:42 | 26.22023 | 36.89611 | 40917 ft | 551 kts | 86° |
| 2026-05-06 14:43 | 26.22853 | 36.98082 | 40922 ft | 550 kts | 86° |
| 2026-05-06 14:43 | 26.23678 | 37.06556 | 40925 ft | 551 kts | 86° |
| 2026-05-06 14:44 | 26.24500 | 37.15037 | 40930 ft | 551 kts | 86° |
| 2026-05-06 14:45 | 26.25726 | 37.27767 | 40946 ft | 552 kts | 87° |
| 2026-05-06 14:45 | 26.26537 | 37.36261 | 40942 ft | 551 kts | 86° |
| 2026-05-06 14:46 | 26.27343 | 37.44753 | 40946 ft | 551 kts | 87° |
| 2026-05-06 14:46 | 26.28146 | 37.53255 | 40942 ft | 552 kts | 87° |
| 2026-05-06 14:47 | 26.28942 | 37.61759 | 40945 ft | 553 kts | 87° |
| 2026-05-06 14:47 | 26.29737 | 37.70285 | 40937 ft | 553 kts | 87° |
| 2026-05-06 14:48 | 26.30527 | 37.78800 | 40935 ft | 552 kts | 87° |
| 2026-05-06 14:48 | 26.31310 | 37.87321 | 40924 ft | 553 kts | 88° |
| 2026-05-06 14:49 | 26.32093 | 37.95841 | 40898 ft | 552 kts | 88° |
| 2026-05-06 14:49 | 26.32859 | 38.04298 | 40908 ft | 552 kts | 88° |
| 2026-05-06 14:50 | 26.33502 | 38.11432 | 40902 ft | 552 kts | 88° |
| 2026-05-06 14:50 | 26.34270 | 38.19946 | 40910 ft | 552 kts | 88° |
| 2026-05-06 14:51 | 26.35032 | 38.28488 | 40915 ft | 555 kts | 88° |
| 2026-05-06 14:51 | 26.35787 | 38.37055 | 40923 ft | 556 kts | 88° |
| 2026-05-06 14:52 | 26.36541 | 38.45627 | 40949 ft | 556 kts | 88° |
| 2026-05-06 14:52 | 26.37289 | 38.54201 | 40963 ft | 555 kts | 88° |
| 2026-05-06 14:53 | 26.38032 | 38.62779 | 40967 ft | 556 kts | 88° |
| 2026-05-06 14:53 | 26.38770 | 38.71359 | 40967 ft | 556 kts | 88° |
| 2026-05-06 14:54 | 26.39504 | 38.79950 | 40971 ft | 557 kts | 88° |
| 2026-05-06 14:54 | 26.40228 | 38.88495 | 40970 ft | 557 kts | 88° |
| 2026-05-06 14:55 | 26.40952 | 38.97092 | 40973 ft | 557 kts | 89° |
| 2026-05-06 14:55 | 26.41671 | 39.05699 | 40970 ft | 557 kts | 89° |
| 2026-05-06 14:56 | 26.42385 | 39.14302 | 40954 ft | 556 kts | 89° |
| 2026-05-06 14:56 | 26.43093 | 39.22898 | 40956 ft | 556 kts | 89° |
| 2026-05-06 14:57 | 26.43758 | 39.31489 | 40964 ft | 556 kts | 90° |
| 2026-05-06 14:57 | 26.44179 | 39.40093 | 40961 ft | 555 kts | 92° |
| 2026-05-06 14:58 | 26.44548 | 39.48709 | 40961 ft | 556 kts | 92° |
| 2026-05-06 14:58 | 26.44947 | 39.57337 | 40961 ft | 557 kts | 91° |
| 2026-05-06 14:59 | 26.45366 | 39.65968 | 40961 ft | 557 kts | 91° |
| 2026-05-06 14:59 | 26.45786 | 39.74607 | 40971 ft | 557 kts | 91° |
| 2026-05-06 15:00 | 26.46200 | 39.83238 | 40952 ft | 557 kts | 92° |
| 2026-05-06 15:00 | 26.46607 | 39.91889 | 40967 ft | 559 kts | 92° |
| 2026-05-06 15:01 | 26.47009 | 40.00549 | 40968 ft | 559 kts | 92° |
| 2026-05-06 15:01 | 26.47406 | 40.09213 | 40961 ft | 559 kts | 92° |
| 2026-05-06 15:02 | 26.47799 | 40.17891 | 40960 ft | 560 kts | 92° |
| 2026-05-06 15:02 | 26.48186 | 40.26565 | 40934 ft | 560 kts | 92° |
| 2026-05-06 15:03 | 26.48569 | 40.35246 | 40958 ft | 559 kts | 92° |
| 2026-05-06 15:03 | 26.48946 | 40.43921 | 40952 ft | 560 kts | 92° |
| 2026-05-06 15:04 | 26.49315 | 40.52543 | 40946 ft | 560 kts | 92° |
| 2026-05-06 15:04 | 26.49681 | 40.61223 | 40945 ft | 560 kts | 92° |
| 2026-05-06 15:05 | 26.50042 | 40.69909 | 40945 ft | 560 kts | 93° |
| 2026-05-06 15:05 | 26.50398 | 40.78647 | 40945 ft | 560 kts | 93° |
| 2026-05-06 15:06 | 26.50745 | 40.87271 | 40944 ft | 560 kts | 93° |
| 2026-05-06 15:06 | 26.51089 | 40.95957 | 40942 ft | 560 kts | 93° |
| 2026-05-06 15:07 | 26.51307 | 41.04633 | 40951 ft | 556 kts | 99° |
| 2026-05-06 15:07 | 26.50839 | 41.13229 | 40919 ft | 554 kts | 101° |
| 2026-05-06 15:08 | 26.50238 | 41.21790 | 40944 ft | 552 kts | 101° |
| 2026-05-06 15:08 | 26.49612 | 41.30331 | 40942 ft | 552 kts | 101° |
| 2026-05-06 15:09 | 26.48992 | 41.38871 | 40922 ft | 552 kts | 101° |
| 2026-05-06 15:09 | 26.48377 | 41.47400 | 40924 ft | 551 kts | 101° |
| 2026-05-06 15:10 | 26.47759 | 41.55920 | 40920 ft | 550 kts | 101° |
| 2026-05-06 15:10 | 26.47135 | 41.64429 | 40921 ft | 550 kts | 101° |
| 2026-05-06 15:11 | 26.46507 | 41.72938 | 40922 ft | 550 kts | 101° |
| 2026-05-06 15:11 | 26.45873 | 41.81441 | 40921 ft | 550 kts | 101° |
| 2026-05-06 15:12 | 26.45234 | 41.89950 | 40915 ft | 550 kts | 101° |
| 2026-05-06 15:12 | 26.44590 | 41.98455 | 40915 ft | 550 kts | 101° |
| 2026-05-06 15:13 | 26.43942 | 42.06958 | 40926 ft | 549 kts | 101° |
| 2026-05-06 15:13 | 26.43290 | 42.15448 | 40924 ft | 549 kts | 101° |
| 2026-05-06 15:14 | 26.42633 | 42.23932 | 40920 ft | 549 kts | 102° |
| 2026-05-06 15:14 | 26.41970 | 42.32411 | 40924 ft | 549 kts | 102° |
| 2026-05-06 15:15 | 26.41303 | 42.40889 | 40926 ft | 549 kts | 102° |
| 2026-05-06 15:15 | 26.40629 | 42.49381 | 40952 ft | 550 kts | 102° |
| 2026-05-06 15:16 | 26.39949 | 42.57891 | 40928 ft | 551 kts | 102° |
| 2026-05-06 15:16 | 26.39264 | 42.66401 | 40931 ft | 551 kts | 102° |
| 2026-05-06 15:17 | 26.38574 | 42.74923 | 40923 ft | 551 kts | 102° |
| 2026-05-06 15:17 | 26.37884 | 42.83379 | 40925 ft | 551 kts | 102° |
| 2026-05-06 15:18 | 26.37184 | 42.91894 | 40926 ft | 551 kts | 102° |
| 2026-05-06 15:18 | 26.36478 | 43.00402 | 40927 ft | 551 kts | 102° |
| 2026-05-06 15:19 | 26.35768 | 43.08914 | 40923 ft | 551 kts | 102° |
| 2026-05-06 15:19 | 26.35053 | 43.17414 | 40917 ft | 551 kts | 102° |
| 2026-05-06 15:20 | 26.34333 | 43.25910 | 40907 ft | 551 kts | 102° |
| 2026-05-06 15:20 | 26.33606 | 43.34417 | 40915 ft | 551 kts | 102° |
| 2026-05-06 15:21 | 26.32876 | 43.42914 | 40915 ft | 551 kts | 102° |
| 2026-05-06 15:21 | 26.32140 | 43.51422 | 40919 ft | 551 kts | 102° |
| 2026-05-06 15:22 | 26.31400 | 43.59918 | 40934 ft | 551 kts | 102° |
| 2026-05-06 15:22 | 26.30656 | 43.68397 | 40938 ft | 551 kts | 102° |
| 2026-05-06 15:23 | 26.29615 | 43.76792 | 40939 ft | 540 kts | 112° |
| 2026-05-06 15:23 | 26.28415 | 43.80700 | 40941 ft | 527 kts | 123° |
| 2026-05-06 15:23 | 26.26895 | 43.84403 | 40928 ft | 524 kts | 124° |
| 2026-05-06 15:24 | 26.23627 | 43.91636 | 40934 ft | 522 kts | 126° |
| 2026-05-06 15:24 | 26.20276 | 43.98798 | 40929 ft | 522 kts | 126° |
| 2026-05-06 15:25 | 26.16935 | 44.05972 | 40925 ft | 522 kts | 126° |
| 2026-05-06 15:25 | 26.13613 | 44.13156 | 40923 ft | 522 kts | 126° |
| 2026-05-06 15:26 | 26.10296 | 44.20336 | 40929 ft | 522 kts | 126° |
| 2026-05-06 15:26 | 26.06976 | 44.27512 | 40935 ft | 522 kts | 126° |
| 2026-05-06 15:27 | 26.03648 | 44.34690 | 40930 ft | 522 kts | 126° |
| 2026-05-06 15:27 | 26.00316 | 44.41865 | 40931 ft | 522 kts | 126° |
| 2026-05-06 15:28 | 25.96986 | 44.49024 | 40934 ft | 521 kts | 126° |